sensor_id;sensor_type;location;lat;lon;timestamp;temperature;humidity
16074;DHT22;8141;52.664;5.074;2023-04-25T00:01:17;20.70;53.00
16074;DHT22;8141;52.664;5.074;2023-04-25T00:03:44;20.70;53.00
16074;DHT22;8141;52.664;5.074;2023-04-25T00:06:11;20.70;53.10
16074;DHT22;8141;52.664;5.074;2023-04-25T00:08:37;20.70;53.20
16074;DHT22;8141;52.664;5.074;2023-04-25T00:11:03;20.70;53.30
16074;DHT22;8141;52.664;5.074;2023-04-25T00:13:29;20.70;53.30
16074;DHT22;8141;52.664;5.074;2023-04-25T00:15:55;20.70;53.50
16074;DHT22;8141;52.664;5.074;2023-04-25T00:18:24;20.70;53.30
16074;DHT22;8141;52.664;5.074;2023-04-25T00:20:50;20.70;53.50
16074;DHT22;8141;52.664;5.074;2023-04-25T00:23:16;20.70;53.60
16074;DHT22;8141;52.664;5.074;2023-04-25T00:25:46;20.60;53.50
16074;DHT22;8141;52.664;5.074;2023-04-25T00:28:13;20.70;53.50
16074;DHT22;8141;52.664;5.074;2023-04-25T00:30:40;20.60;53.20
16074;DHT22;8141;52.664;5.074;2023-04-25T00:33:07;20.70;53.40
16074;DHT22;8141;52.664;5.074;2023-04-25T00:35:33;20.70;53.60
16074;DHT22;8141;52.664;5.074;2023-04-25T00:37:59;20.60;53.40
16074;DHT22;8141;52.664;5.074;2023-04-25T00:40:25;20.60;53.40
16074;DHT22;8141;52.664;5.074;2023-04-25T00:42:52;20.60;53.40
16074;DHT22;8141;52.664;5.074;2023-04-25T00:45:19;20.60;53.60
16074;DHT22;8141;52.664;5.074;2023-04-25T00:47:45;20.60;53.50
16074;DHT22;8141;52.664;5.074;2023-04-25T00:50:13;20.70;53.60
16074;DHT22;8141;52.664;5.074;2023-04-25T00:52:44;20.60;53.50
16074;DHT22;8141;52.664;5.074;2023-04-25T00:55:11;20.60;54.10
16074;DHT22;8141;52.664;5.074;2023-04-25T00:57:38;20.60;53.80
16074;DHT22;8141;52.664;5.074;2023-04-25T01:00:05;20.60;53.90
16074;DHT22;8141;52.664;5.074;2023-04-25T01:02:33;20.60;53.80
16074;DHT22;8141;52.664;5.074;2023-04-25T01:04:59;20.60;53.90
16074;DHT22;8141;52.664;5.074;2023-04-25T01:07:25;20.60;53.70
16074;DHT22;8141;52.664;5.074;2023-04-25T01:09:51;20.60;53.80
16074;DHT22;8141;52.664;5.074;2023-04-25T01:12:17;20.60;53.90
16074;DHT22;8141;52.664;5.074;2023-04-25T01:14:43;20.60;53.80
16074;DHT22;8141;52.664;5.074;2023-04-25T01:17:10;20.60;53.90
16074;DHT22;8141;52.664;5.074;2023-04-25T01:19:36;20.60;53.90
16074;DHT22;8141;52.664;5.074;2023-04-25T01:22:03;20.60;54.00
16074;DHT22;8141;52.664;5.074;2023-04-25T01:24:29;20.60;54.20
16074;DHT22;8141;52.664;5.074;2023-04-25T01:26:58;20.60;54.00
16074;DHT22;8141;52.664;5.074;2023-04-25T01:29:26;20.60;54.10
16074;DHT22;8141;52.664;5.074;2023-04-25T01:31:53;20.60;54.20
16074;DHT22;8141;52.664;5.074;2023-04-25T01:34:19;20.60;54.60
16074;DHT22;8141;52.664;5.074;2023-04-25T01:36:46;20.60;54.40
16074;DHT22;8141;52.664;5.074;2023-04-25T01:39:14;20.60;54.40
16074;DHT22;8141;52.664;5.074;2023-04-25T01:41:40;20.50;54.30
16074;DHT22;8141;52.664;5.074;2023-04-25T01:44:06;20.60;54.40
16074;DHT22;8141;52.664;5.074;2023-04-25T01:46:34;20.50;54.20
16074;DHT22;8141;52.664;5.074;2023-04-25T01:49:00;20.50;54.30
16074;DHT22;8141;52.664;5.074;2023-04-25T01:51:26;20.60;54.50
16074;DHT22;8141;52.664;5.074;2023-04-25T01:53:52;20.60;54.50
16074;DHT22;8141;52.664;5.074;2023-04-25T01:56:19;20.50;54.40
16074;DHT22;8141;52.664;5.074;2023-04-25T01:58:45;20.50;54.40
16074;DHT22;8141;52.664;5.074;2023-04-25T02:01:10;20.50;54.20
16074;DHT22;8141;52.664;5.074;2023-04-25T02:03:36;20.50;54.30
16074;DHT22;8141;52.664;5.074;2023-04-25T02:06:02;20.50;54.20
16074;DHT22;8141;52.664;5.074;2023-04-25T02:08:28;20.50;54.30
16074;DHT22;8141;52.664;5.074;2023-04-25T02:10:53;20.50;54.30
16074;DHT22;8141;52.664;5.074;2023-04-25T02:13:19;20.50;54.50
16074;DHT22;8141;52.664;5.074;2023-04-25T02:15:45;20.50;54.30
16074;DHT22;8141;52.664;5.074;2023-04-25T02:18:11;20.50;54.30
16074;DHT22;8141;52.664;5.074;2023-04-25T02:20:37;20.50;54.60
16074;DHT22;8141;52.664;5.074;2023-04-25T02:23:03;20.50;54.60
16074;DHT22;8141;52.664;5.074;2023-04-25T02:25:29;20.50;54.60
16074;DHT22;8141;52.664;5.074;2023-04-25T02:27:55;20.50;54.70
16074;DHT22;8141;52.664;5.074;2023-04-25T02:30:20;20.50;54.80
16074;DHT22;8141;52.664;5.074;2023-04-25T02:32:46;20.50;54.90
16074;DHT22;8141;52.664;5.074;2023-04-25T02:35:12;20.50;55.00
16074;DHT22;8141;52.664;5.074;2023-04-25T02:37:38;20.50;54.90
16074;DHT22;8141;52.664;5.074;2023-04-25T02:40:06;20.50;55.20
16074;DHT22;8141;52.664;5.074;2023-04-25T02:42:33;20.50;55.10
16074;DHT22;8141;52.664;5.074;2023-04-25T02:44:59;20.50;55.00
16074;DHT22;8141;52.664;5.074;2023-04-25T02:47:25;20.50;55.20
16074;DHT22;8141;52.664;5.074;2023-04-25T02:49:50;20.50;55.10
16074;DHT22;8141;52.664;5.074;2023-04-25T02:52:16;20.50;55.10
16074;DHT22;8141;52.664;5.074;2023-04-25T02:54:42;20.50;55.00
16074;DHT22;8141;52.664;5.074;2023-04-25T02:57:08;20.50;55.00
16074;DHT22;8141;52.664;5.074;2023-04-25T02:59:34;20.40;55.00
16074;DHT22;8141;52.664;5.074;2023-04-25T03:02:00;20.40;54.90
16074;DHT22;8141;52.664;5.074;2023-04-25T03:04:26;20.40;54.80
16074;DHT22;8141;52.664;5.074;2023-04-25T03:06:52;20.40;55.10
16074;DHT22;8141;52.664;5.074;2023-04-25T03:09:19;20.40;54.90
16074;DHT22;8141;52.664;5.074;2023-04-25T03:11:45;20.40;55.20
16074;DHT22;8141;52.664;5.074;2023-04-25T03:14:12;20.40;55.00
16074;DHT22;8141;52.664;5.074;2023-04-25T03:16:38;20.40;55.20
16074;DHT22;8141;52.664;5.074;2023-04-25T03:19:04;20.40;54.90
16074;DHT22;8141;52.664;5.074;2023-04-25T03:21:32;20.40;55.00
16074;DHT22;8141;52.664;5.074;2023-04-25T03:23:59;20.40;54.90
16074;DHT22;8141;52.664;5.074;2023-04-25T03:26:25;20.40;54.90
16074;DHT22;8141;52.664;5.074;2023-04-25T03:28:51;20.40;55.00
16074;DHT22;8141;52.664;5.074;2023-04-25T03:31:16;20.40;55.20
16074;DHT22;8141;52.664;5.074;2023-04-25T03:33:42;20.40;55.00
16074;DHT22;8141;52.664;5.074;2023-04-25T03:36:08;20.40;55.00
16074;DHT22;8141;52.664;5.074;2023-04-25T03:38:34;20.40;55.00
16074;DHT22;8141;52.664;5.074;2023-04-25T03:41:01;20.40;55.00
16074;DHT22;8141;52.664;5.074;2023-04-25T03:43:27;20.40;55.20
16074;DHT22;8141;52.664;5.074;2023-04-25T03:45:53;20.40;55.30
16074;DHT22;8141;52.664;5.074;2023-04-25T03:48:19;20.40;55.20
16074;DHT22;8141;52.664;5.074;2023-04-25T03:50:47;20.40;55.10
16074;DHT22;8141;52.664;5.074;2023-04-25T03:53:13;20.40;55.20
16074;DHT22;8141;52.664;5.074;2023-04-25T03:55:38;20.40;55.30
16074;DHT22;8141;52.664;5.074;2023-04-25T03:58:04;20.40;55.20
16074;DHT22;8141;52.664;5.074;2023-04-25T04:00:30;20.40;55.10
16074;DHT22;8141;52.664;5.074;2023-04-25T04:02:56;20.30;55.20
16074;DHT22;8141;52.664;5.074;2023-04-25T04:05:22;20.40;55.30
16074;DHT22;8141;52.664;5.074;2023-04-25T04:07:48;20.30;55.30
16074;DHT22;8141;52.664;5.074;2023-04-25T04:10:14;20.40;55.20
16074;DHT22;8141;52.664;5.074;2023-04-25T04:12:40;20.40;55.40
16074;DHT22;8141;52.664;5.074;2023-04-25T04:15:06;20.40;55.30
16074;DHT22;8141;52.664;5.074;2023-04-25T04:17:33;20.30;55.40
16074;DHT22;8141;52.664;5.074;2023-04-25T04:19:59;20.40;55.40
16074;DHT22;8141;52.664;5.074;2023-04-25T04:22:25;20.30;55.40
16074;DHT22;8141;52.664;5.074;2023-04-25T04:24:51;20.30;55.30
16074;DHT22;8141;52.664;5.074;2023-04-25T04:27:18;20.40;55.40
16074;DHT22;8141;52.664;5.074;2023-04-25T04:29:45;20.30;56.10
16074;DHT22;8141;52.664;5.074;2023-04-25T04:32:12;20.30;55.30
16074;DHT22;8141;52.664;5.074;2023-04-25T04:34:38;20.30;55.40
16074;DHT22;8141;52.664;5.074;2023-04-25T04:37:05;20.30;55.40
16074;DHT22;8141;52.664;5.074;2023-04-25T04:39:35;20.30;55.40
16074;DHT22;8141;52.664;5.074;2023-04-25T04:42:02;20.30;55.50
16074;DHT22;8141;52.664;5.074;2023-04-25T04:44:29;20.30;55.70
16074;DHT22;8141;52.664;5.074;2023-04-25T04:46:58;20.30;55.50
16074;DHT22;8141;52.664;5.074;2023-04-25T04:49:24;20.30;56.20
16074;DHT22;8141;52.664;5.074;2023-04-25T04:51:50;20.30;56.00
16074;DHT22;8141;52.664;5.074;2023-04-25T04:54:16;20.30;55.60
16074;DHT22;8141;52.664;5.074;2023-04-25T04:56:42;20.30;54.60
16074;DHT22;8141;52.664;5.074;2023-04-25T04:59:08;20.30;54.20
16074;DHT22;8141;52.664;5.074;2023-04-25T05:01:34;20.20;54.00
16074;DHT22;8141;52.664;5.074;2023-04-25T05:04:03;20.10;53.60
16074;DHT22;8141;52.664;5.074;2023-04-25T05:06:30;20.10;53.50
16074;DHT22;8141;52.664;5.074;2023-04-25T05:08:56;20.10;53.40
16074;DHT22;8141;52.664;5.074;2023-04-25T05:11:23;20.00;53.10
16074;DHT22;8141;52.664;5.074;2023-04-25T05:13:52;20.00;53.60
16074;DHT22;8141;52.664;5.074;2023-04-25T05:16:18;20.00;52.70
16074;DHT22;8141;52.664;5.074;2023-04-25T05:18:45;19.90;53.00
16074;DHT22;8141;52.664;5.074;2023-04-25T05:21:11;19.90;52.40
16074;DHT22;8141;52.664;5.074;2023-04-25T05:23:37;19.80;52.50
16074;DHT22;8141;52.664;5.074;2023-04-25T05:26:03;19.80;52.20
16074;DHT22;8141;52.664;5.074;2023-04-25T05:28:28;19.80;52.00
16074;DHT22;8141;52.664;5.074;2023-04-25T05:30:54;19.80;52.00
16074;DHT22;8141;52.664;5.074;2023-04-25T05:33:20;19.70;51.70
16074;DHT22;8141;52.664;5.074;2023-04-25T05:35:46;19.70;51.80
16074;DHT22;8141;52.664;5.074;2023-04-25T05:38:12;19.70;51.60
16074;DHT22;8141;52.664;5.074;2023-04-25T05:40:38;19.70;51.60
16074;DHT22;8141;52.664;5.074;2023-04-25T05:43:03;19.60;51.50
16074;DHT22;8141;52.664;5.074;2023-04-25T05:45:29;19.60;51.40
16074;DHT22;8141;52.664;5.074;2023-04-25T05:47:55;19.60;51.50
16074;DHT22;8141;52.664;5.074;2023-04-25T05:50:21;19.50;51.20
16074;DHT22;8141;52.664;5.074;2023-04-25T05:52:47;19.50;51.20
16074;DHT22;8141;52.664;5.074;2023-04-25T05:55:12;19.50;51.30
16074;DHT22;8141;52.664;5.074;2023-04-25T05:57:38;19.50;51.30
16074;DHT22;8141;52.664;5.074;2023-04-25T06:00:08;19.50;51.30
16074;DHT22;8141;52.664;5.074;2023-04-25T06:02:34;19.50;51.30
16074;DHT22;8141;52.664;5.074;2023-04-25T06:05:00;19.40;51.10
16074;DHT22;8141;52.664;5.074;2023-04-25T06:07:29;19.40;51.30
16074;DHT22;8141;52.664;5.074;2023-04-25T06:09:55;19.40;51.10
16074;DHT22;8141;52.664;5.074;2023-04-25T06:12:21;19.40;51.10
16074;DHT22;8141;52.664;5.074;2023-04-25T06:14:46;19.40;51.40
16074;DHT22;8141;52.664;5.074;2023-04-25T06:17:13;19.30;51.40
16074;DHT22;8141;52.664;5.074;2023-04-25T06:19:38;19.30;51.20
16074;DHT22;8141;52.664;5.074;2023-04-25T06:22:04;19.30;51.40
16074;DHT22;8141;52.664;5.074;2023-04-25T06:24:30;19.30;51.40
16074;DHT22;8141;52.664;5.074;2023-04-25T06:26:55;19.30;51.50
16074;DHT22;8141;52.664;5.074;2023-04-25T06:29:21;19.30;51.50
16074;DHT22;8141;52.664;5.074;2023-04-25T06:31:47;19.30;51.40
16074;DHT22;8141;52.664;5.074;2023-04-25T06:34:12;19.30;51.50
16074;DHT22;8141;52.664;5.074;2023-04-25T06:36:38;19.30;51.40
16074;DHT22;8141;52.664;5.074;2023-04-25T06:39:04;19.30;51.10
16074;DHT22;8141;52.664;5.074;2023-04-25T06:41:29;19.30;51.20
16074;DHT22;8141;52.664;5.074;2023-04-25T06:43:55;19.30;51.10
16074;DHT22;8141;52.664;5.074;2023-04-25T06:46:21;19.20;50.90
16074;DHT22;8141;52.664;5.074;2023-04-25T06:48:46;19.20;50.40
16074;DHT22;8141;52.664;5.074;2023-04-25T06:51:12;19.20;50.40
16074;DHT22;8141;52.664;5.074;2023-04-25T06:53:39;19.10;50.30
16074;DHT22;8141;52.664;5.074;2023-04-25T06:56:05;19.10;50.10
16074;DHT22;8141;52.664;5.074;2023-04-25T06:58:31;19.10;50.40
16074;DHT22;8141;52.664;5.074;2023-04-25T07:00:57;19.10;50.40
16074;DHT22;8141;52.664;5.074;2023-04-25T07:03:23;19.10;50.40
16074;DHT22;8141;52.664;5.074;2023-04-25T07:05:49;19.10;50.50
16074;DHT22;8141;52.664;5.074;2023-04-25T07:08:16;19.10;50.50
16074;DHT22;8141;52.664;5.074;2023-04-25T07:10:42;19.10;50.70
16074;DHT22;8141;52.664;5.074;2023-04-25T07:13:08;19.10;50.70
16074;DHT22;8141;52.664;5.074;2023-04-25T07:15:34;19.10;50.70
16074;DHT22;8141;52.664;5.074;2023-04-25T07:18:00;19.10;50.80
16074;DHT22;8141;52.664;5.074;2023-04-25T07:20:25;19.20;50.80
16074;DHT22;8141;52.664;5.074;2023-04-25T07:22:53;19.10;50.40
16074;DHT22;8141;52.664;5.074;2023-04-25T07:25:19;19.20;50.70
16074;DHT22;8141;52.664;5.074;2023-04-25T07:27:45;19.20;50.60
16074;DHT22;8141;52.664;5.074;2023-04-25T07:30:11;19.20;50.60
16074;DHT22;8141;52.664;5.074;2023-04-25T07:32:38;19.20;51.00
16074;DHT22;8141;52.664;5.074;2023-04-25T07:35:05;19.10;50.40
16074;DHT22;8141;52.664;5.074;2023-04-25T07:37:32;19.10;50.30
16074;DHT22;8141;52.664;5.074;2023-04-25T07:39:59;19.20;50.60
16074;DHT22;8141;52.664;5.074;2023-04-25T07:42:24;19.20;50.30
16074;DHT22;8141;52.664;5.074;2023-04-25T07:44:50;19.20;50.40
16074;DHT22;8141;52.664;5.074;2023-04-25T07:47:17;19.20;50.60
16074;DHT22;8141;52.664;5.074;2023-04-25T07:49:44;19.10;50.50
16074;DHT22;8141;52.664;5.074;2023-04-25T07:52:11;19.10;50.50
16074;DHT22;8141;52.664;5.074;2023-04-25T07:54:37;19.20;50.70
16074;DHT22;8141;52.664;5.074;2023-04-25T07:57:03;19.20;50.70
16074;DHT22;8141;52.664;5.074;2023-04-25T07:59:28;19.20;50.50
16074;DHT22;8141;52.664;5.074;2023-04-25T08:01:54;19.20;50.80
16074;DHT22;8141;52.664;5.074;2023-04-25T08:04:22;19.20;50.60
16074;DHT22;8141;52.664;5.074;2023-04-25T08:06:49;19.20;50.50
16074;DHT22;8141;52.664;5.074;2023-04-25T08:09:15;19.30;50.70
16074;DHT22;8141;52.664;5.074;2023-04-25T08:11:41;19.20;50.40
16074;DHT22;8141;52.664;5.074;2023-04-25T08:14:07;19.20;50.10
16074;DHT22;8141;52.664;5.074;2023-04-25T08:16:32;19.30;50.90
16074;DHT22;8141;52.664;5.074;2023-04-25T08:18:59;19.30;50.60
16074;DHT22;8141;52.664;5.074;2023-04-25T08:21:25;19.20;50.30
16074;DHT22;8141;52.664;5.074;2023-04-25T08:23:52;19.30;50.40
16074;DHT22;8141;52.664;5.074;2023-04-25T08:26:18;19.20;50.20
16074;DHT22;8141;52.664;5.074;2023-04-25T08:28:44;19.20;50.50
16074;DHT22;8141;52.664;5.074;2023-04-25T08:31:09;19.20;50.40
16074;DHT22;8141;52.664;5.074;2023-04-25T08:33:35;19.20;50.50
16074;DHT22;8141;52.664;5.074;2023-04-25T08:36:02;19.20;50.50
16074;DHT22;8141;52.664;5.074;2023-04-25T08:38:28;19.20;50.50
16074;DHT22;8141;52.664;5.074;2023-04-25T08:40:53;19.20;50.80
16074;DHT22;8141;52.664;5.074;2023-04-25T08:43:20;19.20;50.60
16074;DHT22;8141;52.664;5.074;2023-04-25T08:45:47;19.20;50.40
16074;DHT22;8141;52.664;5.074;2023-04-25T08:48:14;19.20;50.50
16074;DHT22;8141;52.664;5.074;2023-04-25T08:50:47;19.20;50.50
16074;DHT22;8141;52.664;5.074;2023-04-25T08:53:17;19.20;50.30
16074;DHT22;8141;52.664;5.074;2023-04-25T08:55:46;19.20;50.30
16074;DHT22;8141;52.664;5.074;2023-04-25T08:58:13;19.20;50.40
16074;DHT22;8141;52.664;5.074;2023-04-25T09:00:39;19.20;50.40
16074;DHT22;8141;52.664;5.074;2023-04-25T09:03:05;19.20;50.50
16074;DHT22;8141;52.664;5.074;2023-04-25T09:05:33;19.20;50.40
16074;DHT22;8141;52.664;5.074;2023-04-25T09:08:00;19.20;50.30
16074;DHT22;8141;52.664;5.074;2023-04-25T09:10:27;19.30;50.40
16074;DHT22;8141;52.664;5.074;2023-04-25T09:13:13;19.30;50.10
16074;DHT22;8141;52.664;5.074;2023-04-25T09:15:51;19.30;50.00
16074;DHT22;8141;52.664;5.074;2023-04-25T09:18:25;19.30;49.90
16074;DHT22;8141;52.664;5.074;2023-04-25T09:20:56;19.30;49.80
16074;DHT22;8141;52.664;5.074;2023-04-25T09:23:24;19.30;50.00
16074;DHT22;8141;52.664;5.074;2023-04-25T09:25:52;19.30;49.90
16074;DHT22;8141;52.664;5.074;2023-04-25T09:28:27;19.30;49.70
16074;DHT22;8141;52.664;5.074;2023-04-25T09:30:57;19.30;49.30
16074;DHT22;8141;52.664;5.074;2023-04-25T09:33:30;19.30;49.50
16074;DHT22;8141;52.664;5.074;2023-04-25T09:36:08;19.30;49.30
16074;DHT22;8141;52.664;5.074;2023-04-25T09:38:41;19.30;49.00
16074;DHT22;8141;52.664;5.074;2023-04-25T09:41:10;19.30;49.00
16074;DHT22;8141;52.664;5.074;2023-04-25T09:43:37;19.30;49.10
16074;DHT22;8141;52.664;5.074;2023-04-25T09:46:10;19.20;48.70
16074;DHT22;8141;52.664;5.074;2023-04-25T09:48:37;19.20;49.30
16074;DHT22;8141;52.664;5.074;2023-04-25T09:51:13;19.30;49.30
16074;DHT22;8141;52.664;5.074;2023-04-25T09:53:40;19.30;48.80
16074;DHT22;8141;52.664;5.074;2023-04-25T09:56:08;19.30;48.50
16074;DHT22;8141;52.664;5.074;2023-04-25T09:58:36;19.30;48.40
16074;DHT22;8141;52.664;5.074;2023-04-25T10:01:05;19.30;48.10
16074;DHT22;8141;52.664;5.074;2023-04-25T10:03:34;19.30;48.30
16074;DHT22;8141;52.664;5.074;2023-04-25T10:06:02;19.30;48.10
16074;DHT22;8141;52.664;5.074;2023-04-25T10:08:32;19.30;47.80
16074;DHT22;8141;52.664;5.074;2023-04-25T10:11:04;19.30;48.60
16074;DHT22;8141;52.664;5.074;2023-04-25T10:13:31;19.30;48.30
16074;DHT22;8141;52.664;5.074;2023-04-25T10:16:00;19.30;48.30
16074;DHT22;8141;52.664;5.074;2023-04-25T10:18:28;19.30;47.90
16074;DHT22;8141;52.664;5.074;2023-04-25T10:20:57;19.30;47.80
16074;DHT22;8141;52.664;5.074;2023-04-25T10:23:24;19.30;47.80
16074;DHT22;8141;52.664;5.074;2023-04-25T10:25:51;19.30;47.80
16074;DHT22;8141;52.664;5.074;2023-04-25T10:28:18;19.30;48.00
16074;DHT22;8141;52.664;5.074;2023-04-25T10:30:58;19.30;48.30
16074;DHT22;8141;52.664;5.074;2023-04-25T10:33:40;19.30;47.80
16074;DHT22;8141;52.664;5.074;2023-04-25T10:36:19;19.30;47.70
16074;DHT22;8141;52.664;5.074;2023-04-25T10:38:48;19.30;47.70
16074;DHT22;8141;52.664;5.074;2023-04-25T10:41:21;19.30;47.60
16074;DHT22;8141;52.664;5.074;2023-04-25T10:43:49;19.30;47.70
16074;DHT22;8141;52.664;5.074;2023-04-25T10:46:24;19.40;47.50
16074;DHT22;8141;52.664;5.074;2023-04-25T10:51:24;19.40;47.90
16074;DHT22;8141;52.664;5.074;2023-04-25T10:56:30;19.30;48.30
16074;DHT22;8141;52.664;5.074;2023-04-25T10:59:16;19.30;47.70
16074;DHT22;8141;52.664;5.074;2023-04-25T11:01:53;19.30;47.60
16074;DHT22;8141;52.664;5.074;2023-04-25T11:04:31;19.30;47.60
16074;DHT22;8141;52.664;5.074;2023-04-25T11:07:12;19.30;47.50
16074;DHT22;8141;52.664;5.074;2023-04-25T11:09:45;19.30;47.60
16074;DHT22;8141;52.664;5.074;2023-04-25T11:12:11;19.30;47.80
16074;DHT22;8141;52.664;5.074;2023-04-25T11:14:38;19.30;47.50
16074;DHT22;8141;52.664;5.074;2023-04-25T11:17:04;19.30;47.30
16074;DHT22;8141;52.664;5.074;2023-04-25T11:19:31;19.30;47.80
16074;DHT22;8141;52.664;5.074;2023-04-25T11:21:57;19.40;47.50
16074;DHT22;8141;52.664;5.074;2023-04-25T11:24:31;19.40;47.50
16074;DHT22;8141;52.664;5.074;2023-04-25T11:26:58;19.40;47.40
16074;DHT22;8141;52.664;5.074;2023-04-25T11:29:29;19.30;47.60
16074;DHT22;8141;52.664;5.074;2023-04-25T11:31:56;19.30;47.50
16074;DHT22;8141;52.664;5.074;2023-04-25T11:34:25;19.30;47.70
16074;DHT22;8141;52.664;5.074;2023-04-25T11:36:52;19.30;48.10
16074;DHT22;8141;52.664;5.074;2023-04-25T11:39:21;19.30;48.00
16074;DHT22;8141;52.664;5.074;2023-04-25T11:41:49;19.30;48.70
16074;DHT22;8141;52.664;5.074;2023-04-25T11:44:17;19.20;47.80
16074;DHT22;8141;52.664;5.074;2023-04-25T11:46:44;19.30;47.90
16074;DHT22;8141;52.664;5.074;2023-04-25T11:49:10;19.20;47.70
16074;DHT22;8141;52.664;5.074;2023-04-25T11:51:44;19.20;47.70
16074;DHT22;8141;52.664;5.074;2023-04-25T11:54:12;19.20;47.50
16074;DHT22;8141;52.664;5.074;2023-04-25T11:56:41;19.30;47.50
16074;DHT22;8141;52.664;5.074;2023-04-25T11:59:08;19.30;47.60
16074;DHT22;8141;52.664;5.074;2023-04-25T12:01:34;19.30;47.50
16074;DHT22;8141;52.664;5.074;2023-04-25T12:04:20;19.30;47.00
16074;DHT22;8141;52.664;5.074;2023-04-25T12:06:49;19.30;47.10
16074;DHT22;8141;52.664;5.074;2023-04-25T12:09:19;19.30;46.90
16074;DHT22;8141;52.664;5.074;2023-04-25T12:11:57;19.30;47.30
16074;DHT22;8141;52.664;5.074;2023-04-25T12:14:25;19.30;47.10
16074;DHT22;8141;52.664;5.074;2023-04-25T12:16:55;19.30;47.00
16074;DHT22;8141;52.664;5.074;2023-04-25T12:19:23;19.30;46.70
16074;DHT22;8141;52.664;5.074;2023-04-25T12:21:49;19.30;47.30
16074;DHT22;8141;52.664;5.074;2023-04-25T12:24:17;19.30;47.30
16074;DHT22;8141;52.664;5.074;2023-04-25T12:26:51;19.30;47.30
16074;DHT22;8141;52.664;5.074;2023-04-25T12:29:22;19.30;47.00
16074;DHT22;8141;52.664;5.074;2023-04-25T12:31:50;19.30;47.50
16074;DHT22;8141;52.664;5.074;2023-04-25T12:34:20;19.30;46.80
16074;DHT22;8141;52.664;5.074;2023-04-25T12:36:47;19.30;47.10
16074;DHT22;8141;52.664;5.074;2023-04-25T12:39:23;19.30;47.00
16074;DHT22;8141;52.664;5.074;2023-04-25T12:41:51;19.30;46.60
16074;DHT22;8141;52.664;5.074;2023-04-25T12:44:19;19.30;46.60
16074;DHT22;8141;52.664;5.074;2023-04-25T12:46:45;19.30;46.50
16074;DHT22;8141;52.664;5.074;2023-04-25T12:49:12;19.30;46.60
16074;DHT22;8141;52.664;5.074;2023-04-25T12:51:37;19.30;46.80
16074;DHT22;8141;52.664;5.074;2023-04-25T12:54:04;19.30;46.90
16074;DHT22;8141;52.664;5.074;2023-04-25T12:56:31;19.30;47.00
16074;DHT22;8141;52.664;5.074;2023-04-25T12:58:57;19.30;46.90
16074;DHT22;8141;52.664;5.074;2023-04-25T13:01:24;19.30;46.90
16074;DHT22;8141;52.664;5.074;2023-04-25T13:03:50;19.30;47.00
16074;DHT22;8141;52.664;5.074;2023-04-25T13:06:17;19.30;47.00
16074;DHT22;8141;52.664;5.074;2023-04-25T13:08:43;19.30;46.70
16074;DHT22;8141;52.664;5.074;2023-04-25T13:11:09;19.30;46.60
16074;DHT22;8141;52.664;5.074;2023-04-25T13:13:35;19.30;46.20
16074;DHT22;8141;52.664;5.074;2023-04-25T13:16:02;19.30;46.70
16074;DHT22;8141;52.664;5.074;2023-04-25T13:18:29;19.30;46.30
16074;DHT22;8141;52.664;5.074;2023-04-25T13:20:56;19.30;46.40
16074;DHT22;8141;52.664;5.074;2023-04-25T13:23:24;19.30;46.40
16074;DHT22;8141;52.664;5.074;2023-04-25T13:25:50;19.30;46.40
16074;DHT22;8141;52.664;5.074;2023-04-25T13:28:16;19.30;46.50
16074;DHT22;8141;52.664;5.074;2023-04-25T13:30:42;19.30;46.60
16074;DHT22;8141;52.664;5.074;2023-04-25T13:33:08;19.30;46.40
16074;DHT22;8141;52.664;5.074;2023-04-25T13:35:34;19.30;46.40
16074;DHT22;8141;52.664;5.074;2023-04-25T13:38:00;19.30;46.40
16074;DHT22;8141;52.664;5.074;2023-04-25T13:40:27;19.30;46.60
16074;DHT22;8141;52.664;5.074;2023-04-25T13:42:53;19.30;46.50
16074;DHT22;8141;52.664;5.074;2023-04-25T13:45:19;19.30;46.20
16074;DHT22;8141;52.664;5.074;2023-04-25T13:47:46;19.30;46.40
16074;DHT22;8141;52.664;5.074;2023-04-25T13:50:12;19.30;46.70
16074;DHT22;8141;52.664;5.074;2023-04-25T13:52:39;19.30;46.50
16074;DHT22;8141;52.664;5.074;2023-04-25T13:55:06;19.30;46.60
16074;DHT22;8141;52.664;5.074;2023-04-25T13:57:34;19.30;46.40
16074;DHT22;8141;52.664;5.074;2023-04-25T14:00:00;19.30;46.60
16074;DHT22;8141;52.664;5.074;2023-04-25T14:02:31;19.30;46.40
16074;DHT22;8141;52.664;5.074;2023-04-25T14:04:57;19.20;46.50
16074;DHT22;8141;52.664;5.074;2023-04-25T14:07:22;19.30;46.60
16074;DHT22;8141;52.664;5.074;2023-04-25T14:09:48;19.30;46.40
16074;DHT22;8141;52.664;5.074;2023-04-25T14:12:14;19.30;46.40
16074;DHT22;8141;52.664;5.074;2023-04-25T14:14:40;19.30;46.50
16074;DHT22;8141;52.664;5.074;2023-04-25T14:17:06;19.30;46.30
16074;DHT22;8141;52.664;5.074;2023-04-25T14:19:32;19.30;46.40
16074;DHT22;8141;52.664;5.074;2023-04-25T14:21:58;19.30;46.60
16074;DHT22;8141;52.664;5.074;2023-04-25T14:24:23;19.30;46.30
16074;DHT22;8141;52.664;5.074;2023-04-25T14:26:50;19.30;46.40
16074;DHT22;8141;52.664;5.074;2023-04-25T14:29:16;19.20;46.20
16074;DHT22;8141;52.664;5.074;2023-04-25T14:31:41;19.30;46.30
16074;DHT22;8141;52.664;5.074;2023-04-25T14:34:07;19.20;46.30
16074;DHT22;8141;52.664;5.074;2023-04-25T14:36:35;19.30;46.40
16074;DHT22;8141;52.664;5.074;2023-04-25T14:39:01;19.30;47.00
16074;DHT22;8141;52.664;5.074;2023-04-25T14:41:26;19.20;46.10
16074;DHT22;8141;52.664;5.074;2023-04-25T14:43:52;19.20;46.10
16074;DHT22;8141;52.664;5.074;2023-04-25T14:46:19;19.20;46.10
16074;DHT22;8141;52.664;5.074;2023-04-25T14:48:45;19.20;46.10
16074;DHT22;8141;52.664;5.074;2023-04-25T14:51:13;19.20;45.90
16074;DHT22;8141;52.664;5.074;2023-04-25T14:53:39;19.20;45.90
16074;DHT22;8141;52.664;5.074;2023-04-25T14:56:06;19.20;46.10
16074;DHT22;8141;52.664;5.074;2023-04-25T14:58:32;19.20;45.90
16074;DHT22;8141;52.664;5.074;2023-04-25T15:00:59;19.20;45.90
16074;DHT22;8141;52.664;5.074;2023-04-25T15:03:25;19.20;45.70
16074;DHT22;8141;52.664;5.074;2023-04-25T15:05:51;19.20;46.20
16074;DHT22;8141;52.664;5.074;2023-04-25T15:08:18;19.20;46.00
16074;DHT22;8141;52.664;5.074;2023-04-25T15:10:43;19.20;45.70
16074;DHT22;8141;52.664;5.074;2023-04-25T15:13:10;19.20;45.80
16074;DHT22;8141;52.664;5.074;2023-04-25T15:15:36;19.20;45.70
16074;DHT22;8141;52.664;5.074;2023-04-25T15:18:02;19.20;45.60
16074;DHT22;8141;52.664;5.074;2023-04-25T15:20:28;19.20;45.60
16074;DHT22;8141;52.664;5.074;2023-04-25T15:22:53;19.20;45.70
16074;DHT22;8141;52.664;5.074;2023-04-25T15:25:19;19.10;45.60
16074;DHT22;8141;52.664;5.074;2023-04-25T15:27:45;19.20;45.80
16074;DHT22;8141;52.664;5.074;2023-04-25T15:30:16;19.20;46.50
16074;DHT22;8141;52.664;5.074;2023-04-25T15:32:44;19.20;45.70
16074;DHT22;8141;52.664;5.074;2023-04-25T15:35:11;19.20;45.90
16074;DHT22;8141;52.664;5.074;2023-04-25T15:37:38;19.20;45.70
16074;DHT22;8141;52.664;5.074;2023-04-25T15:40:13;19.20;45.90
16074;DHT22;8141;52.664;5.074;2023-04-25T15:42:45;19.20;45.70
16074;DHT22;8141;52.664;5.074;2023-04-25T15:45:14;19.20;45.70
16074;DHT22;8141;52.664;5.074;2023-04-25T15:47:41;19.20;45.50
16074;DHT22;8141;52.664;5.074;2023-04-25T15:50:07;19.20;45.50